createdAt,value
2023-04-26T00:03:26.942Z,101868.69
2023-04-26T00:08:48.926Z,101872.53
2023-04-26T00:14:11.788Z,101869.13
2023-04-26T00:19:33.710Z,101875.97
2023-04-26T00:24:55.492Z,101884.53
2023-04-26T00:30:17.319Z,101879.41
2023-04-26T00:35:39.389Z,101871.31
2023-04-26T00:41:01.291Z,101867.94
2023-04-26T00:46:23.240Z,101867.31
2023-04-26T00:51:45.676Z,101873.06
2023-04-26T00:57:10.056Z,101874.38
2023-04-26T01:02:32.069Z,101865.22
2023-04-26T01:07:54.195Z,101865.41
2023-04-26T01:13:16.827Z,101870.13
2023-04-26T01:18:38.802Z,101876.09
2023-04-26T01:24:00.640Z,101874.63
2023-04-26T01:29:24.526Z,101880.38
2023-04-26T01:34:46.833Z,101879.78
2023-04-26T01:40:10.068Z,101880.84
2023-04-26T01:45:31.849Z,101873.63
2023-04-26T01:50:53.617Z,101875.75
2023-04-26T01:56:16.346Z,101866.81
2023-04-26T02:01:38.227Z,101865.09
2023-04-26T02:07:00.070Z,101864.47
2023-04-26T02:12:22.294Z,101863.84
2023-04-26T02:17:44.284Z,101865.16
2023-04-26T02:23:08.829Z,101861.53
2023-04-26T02:28:31.714Z,101862.59
2023-04-26T02:33:53.688Z,101855.38
2023-04-26T02:39:15.632Z,101846.41
2023-04-26T02:44:40.020Z,101842.97
2023-04-26T02:50:01.978Z,101842.97
2023-04-26T02:55:23.809Z,101835.97
2023-04-26T03:00:47.970Z,101843.41
2023-04-26T03:06:10.187Z,101845.59
2023-04-26T03:11:32.216Z,101838.34
2023-04-26T03:16:54.185Z,101835.78
2023-04-26T03:22:16.694Z,101838.78
2023-04-26T03:27:38.654Z,101837.09
2023-04-26T03:33:00.987Z,101836.25
2023-04-26T03:38:23.889Z,101839.44
2023-04-26T03:43:45.785Z,101834.97
2023-04-26T03:49:08.441Z,101838.00
2023-04-26T03:54:30.468Z,101830.75
2023-04-26T03:59:52.226Z,101825.22
2023-04-26T04:05:14.383Z,101831.19
2023-04-26T04:10:38.332Z,101837.56
2023-04-26T04:16:00.311Z,101842.50
2023-04-26T04:21:22.113Z,101845.47
2023-04-26T04:26:43.890Z,101842.06
2023-04-26T04:32:06.084Z,101854.19
2023-04-26T04:37:29.069Z,101846.13
2023-04-26T04:42:51.152Z,101862.75
2023-04-26T04:48:12.945Z,101851.03
2023-04-26T04:53:35.248Z,101843.78
2023-04-26T04:58:57.227Z,101852.31
2023-04-26T05:04:19.166Z,101854.47
2023-04-26T05:09:42.272Z,101841.66
2023-04-26T05:15:05.009Z,101847.22
2023-04-26T05:20:26.836Z,101849.84
2023-04-26T05:25:48.662Z,101868.31
2023-04-26T05:31:11.585Z,101857.91
2023-04-26T05:36:33.637Z,101866.63
2023-04-26T05:41:55.398Z,101869.78
2023-04-26T05:47:17.214Z,101868.09
2023-04-26T05:52:39.057Z,101874.56
2023-04-26T05:58:00.816Z,101876.56
2023-04-26T06:03:22.807Z,101889.66
2023-04-26T06:08:44.695Z,101890.16
2023-04-26T06:14:07.821Z,101882.34
2023-04-26T06:19:34.028Z,101880.25
2023-04-26T06:24:55.969Z,101896.69
2023-04-26T06:30:18.223Z,101889.69
2023-04-26T06:35:41.734Z,101897.63
2023-04-26T06:41:03.656Z,101902.97
2023-04-26T06:46:25.493Z,101908.56
2023-04-26T06:51:47.656Z,101904.53
2023-04-26T06:57:09.522Z,101900.72
2023-04-26T07:02:31.530Z,101905.66
2023-04-26T07:07:53.729Z,101901.59
2023-04-26T07:13:15.638Z,101897.91
2023-04-26T07:18:37.444Z,101894.91
2023-04-26T07:23:59.255Z,101891.84
2023-04-26T07:29:21.598Z,101899.88
2023-04-26T07:34:43.359Z,101886.78
2023-04-26T07:40:08.444Z,101895.50
2023-04-26T07:45:30.215Z,101904.19
2023-04-26T07:50:52.391Z,101898.06
2023-04-26T07:56:14.317Z,101903.56
2023-04-26T08:01:36.273Z,101914.44
2023-04-26T08:06:58.060Z,101904.72
2023-04-26T08:12:19.923Z,101898.09
2023-04-26T08:17:42.162Z,101901.50
2023-04-26T08:23:04.288Z,101899.19
2023-04-26T08:28:26.556Z,101898.94
2023-04-26T08:33:48.400Z,101892.09
2023-04-26T08:39:10.267Z,101897.25
2023-04-26T08:44:36.016Z,101894.88
2023-04-26T08:50:03.999Z,101893.50
2023-04-26T08:55:27.577Z,101890.63
2023-04-26T09:00:51.084Z,101890.81
2023-04-26T09:06:13.431Z,101880.78
2023-04-26T09:11:59.859Z,101873.16
2023-04-26T09:17:37.288Z,101884.63
2023-04-26T09:23:10.193Z,101877.19
2023-04-26T09:28:31.938Z,101883.72
2023-04-26T09:34:00.552Z,101881.13
2023-04-26T09:39:37.848Z,101889.09
2023-04-26T09:45:06.796Z,101880.63
2023-04-26T09:50:30.374Z,101877.44
2023-04-26T09:55:52.218Z,101876.41
2023-04-26T10:01:16.608Z,101875.84
2023-04-26T10:06:41.844Z,101876.53
2023-04-26T10:12:04.281Z,101872.88
2023-04-26T10:17:26.164Z,101852.38
2023-04-26T10:22:54.069Z,101863.03
2023-04-26T10:28:16.452Z,101863.03
2023-04-26T10:33:38.771Z,101865.94
2023-04-26T10:39:26.022Z,101857.34
2023-04-26T10:44:48.011Z,101850.00
2023-04-26T10:50:11.542Z,101845.56
2023-04-26T10:55:43.266Z,101840.28
2023-04-26T11:01:16.716Z,101826.91
2023-04-26T11:06:51.722Z,101819.69
2023-04-26T11:12:16.639Z,101828.31
2023-04-26T11:17:38.577Z,101822.53
2023-04-26T11:23:01.729Z,101828.38
2023-04-26T11:28:23.693Z,101811.31
2023-04-26T11:33:45.996Z,101805.91
2023-04-26T11:39:08.613Z,101805.44
2023-04-26T11:44:30.661Z,101792.59
2023-04-26T11:49:52.724Z,101790.91
2023-04-26T11:55:15.143Z,101797.56
2023-04-26T12:00:37.042Z,101795.50
2023-04-26T12:05:58.853Z,101791.13
2023-04-26T12:11:21.027Z,101796.56
2023-04-26T12:16:43.504Z,101795.81
2023-04-26T12:22:09.399Z,101792.31
2023-04-26T12:27:31.241Z,101800.75
2023-04-26T12:32:55.724Z,101804.25
2023-04-26T12:38:20.128Z,101800.25
2023-04-26T12:43:42.086Z,101795.16
2023-04-26T12:49:04.395Z,101799.47
2023-04-26T12:54:26.445Z,101802.97
2023-04-26T12:59:48.459Z,101805.38
2023-04-26T13:05:11.227Z,101803.06
2023-04-26T13:10:33.349Z,101801.88
2023-04-26T13:15:55.644Z,101797.50
2023-04-26T13:21:17.452Z,101792.66
2023-04-26T13:26:39.302Z,101800.81
2023-04-26T13:32:01.628Z,101796.34
2023-04-26T13:37:24.213Z,101786.09
2023-04-26T13:42:46.056Z,101783.31
2023-04-26T13:48:07.947Z,101789.72
2023-04-26T13:53:29.740Z,101789.47
2023-04-26T13:58:56.616Z,101784.94
2023-04-26T14:04:18.628Z,101789.88
2023-04-26T14:09:40.738Z,101789.31
2023-04-26T14:15:04.519Z,101787.06
2023-04-26T14:20:26.377Z,101784.78
2023-04-26T14:25:52.032Z,101782.13
2023-04-26T14:31:14.027Z,101787.44
2023-04-26T14:36:35.840Z,101781.03
2023-04-26T14:41:58.064Z,101781.28
2023-04-26T14:47:19.913Z,101782.00
2023-04-26T14:52:42.108Z,101784.03
2023-04-26T14:58:03.930Z,101763.97
2023-04-26T15:03:25.811Z,101758.41
2023-04-26T15:08:50.832Z,101753.34
2023-04-26T15:14:12.657Z,101755.97
2023-04-26T15:19:34.721Z,101751.97
2023-04-26T15:24:57.012Z,101744.97
2023-04-26T15:30:18.877Z,101755.09
2023-04-26T15:35:40.892Z,101748.56
2023-04-26T15:41:03.140Z,101744.34
2023-04-26T15:46:24.965Z,101746.13
2023-04-26T15:51:46.843Z,101742.97
2023-04-26T15:57:08.633Z,101744.03
2023-04-26T16:02:30.531Z,101738.97
2023-04-26T16:07:52.491Z,101748.38
2023-04-26T16:13:15.452Z,101743.31
2023-04-26T16:18:40.110Z,101743.31
2023-04-26T16:24:02.019Z,101749.28
2023-04-26T16:29:25.239Z,101736.47
2023-04-26T16:34:47.802Z,101746.13
2023-04-26T16:40:10.876Z,101740.59
2023-04-26T16:45:32.732Z,101734.19
2023-04-26T16:50:54.648Z,101736.56
2023-04-26T16:56:16.629Z,101741.75
2023-04-26T17:01:38.515Z,101746.47
2023-04-26T17:07:00.373Z,101744.78
2023-04-26T17:12:22.476Z,101754.81
2023-04-26T17:17:44.322Z,101755.78
2023-04-26T17:23:06.215Z,101750.09
2023-04-26T17:28:28.101Z,101749.91
2023-04-26T17:33:49.938Z,101752.94
2023-04-26T17:39:11.771Z,101756.44
2023-04-26T17:44:33.553Z,101759.38
2023-04-26T17:49:55.406Z,101768.06
2023-04-26T17:55:17.326Z,101776.78
2023-04-26T18:00:39.501Z,101779.91
2023-04-26T18:06:01.801Z,101787.19
2023-04-26T18:11:23.688Z,101787.78
2023-04-26T18:16:45.508Z,101781.41
2023-04-26T18:22:08.016Z,101787.78
2023-04-26T18:27:30.137Z,101800.34
2023-04-26T18:32:53.142Z,101801.59
2023-04-26T18:38:15.227Z,101808.84
2023-04-26T18:43:37.000Z,101813.06
2023-04-26T18:48:58.774Z,101816.22
2023-04-26T18:54:20.625Z,101819.59
2023-04-26T18:59:42.428Z,101823.88
2023-04-26T19:05:04.904Z,101825.97
2023-04-26T19:10:27.045Z,101829.34
2023-04-26T19:15:48.911Z,101828.38
2023-04-26T19:21:10.834Z,101841.34
2023-04-26T19:26:32.970Z,101848.25
2023-04-26T19:31:54.764Z,101841.09
2023-04-26T19:37:16.645Z,101831.53
2023-04-26T19:42:38.416Z,101839.19
2023-04-26T19:48:00.291Z,101847.66
2023-04-26T19:53:22.286Z,101851.03
2023-04-26T19:58:44.160Z,101853.59
2023-04-26T20:04:06.383Z,101852.38
2023-04-26T20:09:29.454Z,101852.00
2023-04-26T20:14:52.768Z,101849.97
2023-04-26T20:20:17.739Z,101855.38
2023-04-26T20:25:40.308Z,101854.06
2023-04-26T20:31:02.624Z,101844.38
2023-04-26T20:36:26.469Z,101866.63
2023-04-26T20:41:48.365Z,101867.00
2023-04-26T20:47:10.224Z,101868.44
2023-04-26T20:52:32.327Z,101865.75
2023-04-26T20:57:54.136Z,101866.94
2023-04-26T21:03:16.215Z,101870.66
2023-04-26T21:08:38.491Z,101873.06
2023-04-26T21:14:00.596Z,101869.03
2023-04-26T21:19:22.412Z,101875.72
2023-04-26T21:24:44.496Z,101884.53
2023-04-26T21:30:07.359Z,101883.06
2023-04-26T21:35:29.542Z,101883.75
2023-04-26T21:40:51.396Z,101886.16
2023-04-26T21:46:13.275Z,101891.34
2023-04-26T21:51:35.100Z,101884.09
2023-04-26T21:56:56.880Z,101879.00
2023-04-26T22:02:19.186Z,101881.19
2023-04-26T22:07:41.241Z,101873.06
2023-04-26T22:13:03.171Z,101875.22
2023-04-26T22:18:26.563Z,101880.16
2023-04-26T22:23:48.369Z,101890.31
2023-04-26T22:29:10.350Z,101887.84
2023-04-26T22:34:32.259Z,101882.38
2023-04-26T22:39:54.130Z,101879.69
2023-04-26T22:45:16.334Z,101883.41
2023-04-26T22:50:38.216Z,101885.16
2023-04-26T22:55:59.998Z,101898.03
2023-04-26T23:01:21.884Z,101899.59
2023-04-26T23:06:43.924Z,101907.97
2023-04-26T23:12:05.990Z,101911.44
2023-04-26T23:41:15.046Z,101923.44
2023-04-26T23:46:36.918Z,101927.53
2023-04-26T23:51:58.681Z,101938.22
2023-04-26T23:57:20.697Z,101929.31
